sensor_id;sensor_type;location;lat;lon;timestamp;P1;durP1;ratioP1;P2;durP2;ratioP2
72427;SDS011;60419;48.880;18.036;2023-10-19T00:01:40;8.80;;;5.22;;
72427;SDS011;60419;48.880;18.036;2023-10-19T00:04:26;10.02;;;5.20;;
72427;SDS011;60419;48.880;18.036;2023-10-19T00:07:14;9.45;;;5.65;;
72427;SDS011;60419;48.880;18.036;2023-10-19T00:10:00;12.93;;;6.20;;
72427;SDS011;60419;48.880;18.036;2023-10-19T00:12:48;9.38;;;5.63;;
72427;SDS011;60419;48.880;18.036;2023-10-19T00:15:42;10.18;;;5.40;;
72427;SDS011;60419;48.880;18.036;2023-10-19T00:18:37;15.60;;;5.63;;
72427;SDS011;60419;48.880;18.036;2023-10-19T00:21:27;9.70;;;5.75;;
72427;SDS011;60419;48.880;18.036;2023-10-19T00:24:13;8.15;;;5.22;;
72427;SDS011;60419;48.880;18.036;2023-10-19T00:27:01;8.98;;;5.38;;
72427;SDS011;60419;48.880;18.036;2023-10-19T00:30:04;8.85;;;5.35;;
72427;SDS011;60419;48.880;18.036;2023-10-19T00:32:51;9.90;;;5.63;;
72427;SDS011;60419;48.880;18.036;2023-10-19T00:35:38;9.70;;;4.82;;
72427;SDS011;60419;48.880;18.036;2023-10-19T00:38:32;7.72;;;4.53;;
72427;SDS011;60419;48.880;18.036;2023-10-19T00:41:21;10.82;;;4.90;;
72427;SDS011;60419;48.880;18.036;2023-10-19T00:44:14;8.93;;;4.90;;
72427;SDS011;60419;48.880;18.036;2023-10-19T00:47:07;8.57;;;5.07;;
72427;SDS011;60419;48.880;18.036;2023-10-19T00:49:59;8.98;;;5.07;;
72427;SDS011;60419;48.880;18.036;2023-10-19T00:52:50;9.65;;;5.25;;
72427;SDS011;60419;48.880;18.036;2023-10-19T00:55:35;9.05;;;4.93;;
72427;SDS011;60419;48.880;18.036;2023-10-19T00:58:21;8.82;;;4.30;;
72427;SDS011;60419;48.880;18.036;2023-10-19T01:01:14;9.10;;;4.70;;
72427;SDS011;60419;48.880;18.036;2023-10-19T01:04:02;8.73;;;4.55;;
72427;SDS011;60419;48.880;18.036;2023-10-19T01:06:49;8.88;;;4.68;;
72427;SDS011;60419;48.880;18.036;2023-10-19T01:09:51;9.65;;;4.88;;
72427;SDS011;60419;48.880;18.036;2023-10-19T01:12:38;8.88;;;4.95;;
72427;SDS011;60419;48.880;18.036;2023-10-19T01:15:24;9.48;;;5.57;;
72427;SDS011;60419;48.880;18.036;2023-10-19T01:18:14;9.25;;;5.63;;
72427;SDS011;60419;48.880;18.036;2023-10-19T01:21:02;8.32;;;4.82;;
72427;SDS011;60419;48.880;18.036;2023-10-19T01:23:50;10.90;;;4.78;;
72427;SDS011;60419;48.880;18.036;2023-10-19T01:26:35;9.05;;;5.22;;
72427;SDS011;60419;48.880;18.036;2023-10-19T01:29:22;12.80;;;4.75;;
72427;SDS011;60419;48.880;18.036;2023-10-19T01:32:12;8.10;;;4.18;;
72427;SDS011;60419;48.880;18.036;2023-10-19T01:35:00;14.75;;;5.40;;
72427;SDS011;60419;48.880;18.036;2023-10-19T01:37:45;10.57;;;5.28;;
72427;SDS011;60419;48.880;18.036;2023-10-19T01:40:31;8.45;;;5.03;;
72427;SDS011;60419;48.880;18.036;2023-10-19T01:43:16;8.77;;;5.60;;
72427;SDS011;60419;48.880;18.036;2023-10-19T01:46:06;10.65;;;6.18;;
72427;SDS011;60419;48.880;18.036;2023-10-19T01:49:12;9.40;;;4.93;;
72427;SDS011;60419;48.880;18.036;2023-10-19T01:51:57;8.15;;;4.97;;
72427;SDS011;60419;48.880;18.036;2023-10-19T01:54:43;11.13;;;5.47;;
72427;SDS011;60419;48.880;18.036;2023-10-19T01:57:28;8.20;;;5.13;;
72427;SDS011;60419;48.880;18.036;2023-10-19T02:00:14;8.95;;;4.80;;
72427;SDS011;60419;48.880;18.036;2023-10-19T02:03:07;10.13;;;5.38;;
72427;SDS011;60419;48.880;18.036;2023-10-19T02:06:00;8.50;;;5.40;;
72427;SDS011;60419;48.880;18.036;2023-10-19T02:08:58;10.52;;;5.00;;
72427;SDS011;60419;48.880;18.036;2023-10-19T02:12:03;10.90;;;5.40;;
72427;SDS011;60419;48.880;18.036;2023-10-19T02:14:50;10.02;;;5.50;;
72427;SDS011;60419;48.880;18.036;2023-10-19T02:17:36;8.48;;;4.85;;
72427;SDS011;60419;48.880;18.036;2023-10-19T02:20:22;10.05;;;5.43;;
72427;SDS011;60419;48.880;18.036;2023-10-19T02:23:09;9.00;;;5.07;;
72427;SDS011;60419;48.880;18.036;2023-10-19T02:25:55;10.73;;;5.88;;
72427;SDS011;60419;48.880;18.036;2023-10-19T02:28:41;11.07;;;5.97;;
72427;SDS011;60419;48.880;18.036;2023-10-19T02:31:28;8.80;;;5.75;;
72427;SDS011;60419;48.880;18.036;2023-10-19T02:34:14;13.10;;;6.63;;
72427;SDS011;60419;48.880;18.036;2023-10-19T02:37:02;11.13;;;6.63;;
72427;SDS011;60419;48.880;18.036;2023-10-19T02:39:48;11.13;;;6.95;;
72427;SDS011;60419;48.880;18.036;2023-10-19T02:42:34;13.00;;;7.18;;
72427;SDS011;60419;48.880;18.036;2023-10-19T02:45:19;11.68;;;7.80;;
72427;SDS011;60419;48.880;18.036;2023-10-19T02:48:05;12.95;;;7.60;;
72427;SDS011;60419;48.880;18.036;2023-10-19T02:50:56;12.88;;;8.07;;
72427;SDS011;60419;48.880;18.036;2023-10-19T02:53:50;12.73;;;8.35;;
72427;SDS011;60419;48.880;18.036;2023-10-19T02:56:36;14.68;;;8.93;;
72427;SDS011;60419;48.880;18.036;2023-10-19T02:59:24;11.55;;;8.15;;
72427;SDS011;60419;48.880;18.036;2023-10-19T03:02:10;13.02;;;8.25;;
72427;SDS011;60419;48.880;18.036;2023-10-19T03:04:55;12.45;;;8.55;;
72427;SDS011;60419;48.880;18.036;2023-10-19T03:07:41;15.43;;;8.98;;
72427;SDS011;60419;48.880;18.036;2023-10-19T03:10:29;13.88;;;9.55;;
72427;SDS011;60419;48.880;18.036;2023-10-19T03:13:27;14.73;;;9.98;;
72427;SDS011;60419;48.880;18.036;2023-10-19T03:16:13;17.60;;;9.15;;
72427;SDS011;60419;48.880;18.036;2023-10-19T03:18:58;16.08;;;10.32;;
72427;SDS011;60419;48.880;18.036;2023-10-19T03:21:43;14.48;;;10.73;;
72427;SDS011;60419;48.880;18.036;2023-10-19T03:24:29;16.67;;;11.20;;
72427;SDS011;60419;48.880;18.036;2023-10-19T03:27:20;15.88;;;10.85;;
72427;SDS011;60419;48.880;18.036;2023-10-19T03:30:06;17.65;;;11.88;;
72427;SDS011;60419;48.880;18.036;2023-10-19T03:32:53;17.23;;;11.70;;
72427;SDS011;60419;48.880;18.036;2023-10-19T03:35:38;17.60;;;12.30;;
72427;SDS011;60419;48.880;18.036;2023-10-19T03:38:27;17.92;;;13.02;;
72427;SDS011;60419;48.880;18.036;2023-10-19T03:41:17;20.30;;;13.23;;
72427;SDS011;60419;48.880;18.036;2023-10-19T03:44:06;23.63;;;13.65;;
72427;SDS011;60419;48.880;18.036;2023-10-19T03:46:52;18.92;;;13.23;;
72427;SDS011;60419;48.880;18.036;2023-10-19T03:49:38;20.65;;;13.35;;
72427;SDS011;60419;48.880;18.036;2023-10-19T03:52:24;18.10;;;13.73;;
72427;SDS011;60419;48.880;18.036;2023-10-19T03:55:15;17.52;;;12.85;;
72427;SDS011;60419;48.880;18.036;2023-10-19T03:58:03;21.60;;;13.90;;
72427;SDS011;60419;48.880;18.036;2023-10-19T04:00:49;18.08;;;13.68;;
72427;SDS011;60419;48.880;18.036;2023-10-19T04:03:34;19.85;;;13.98;;
72427;SDS011;60419;48.880;18.036;2023-10-19T04:06:21;17.20;;;13.15;;
72427;SDS011;60419;48.880;18.036;2023-10-19T04:09:07;20.20;;;14.32;;
72427;SDS011;60419;48.880;18.036;2023-10-19T04:11:55;20.40;;;15.23;;
72427;SDS011;60419;48.880;18.036;2023-10-19T04:14:41;21.25;;;15.05;;
72427;SDS011;60419;48.880;18.036;2023-10-19T04:17:26;21.02;;;14.88;;
72427;SDS011;60419;48.880;18.036;2023-10-19T04:20:13;21.50;;;14.70;;
72427;SDS011;60419;48.880;18.036;2023-10-19T04:23:23;23.55;;;15.48;;
72427;SDS011;60419;48.880;18.036;2023-10-19T04:26:13;21.52;;;15.18;;
72427;SDS011;60419;48.880;18.036;2023-10-19T04:28:59;21.45;;;15.32;;
72427;SDS011;60419;48.880;18.036;2023-10-19T04:31:44;23.98;;;15.48;;
72427;SDS011;60419;48.880;18.036;2023-10-19T04:34:39;21.13;;;14.52;;
72427;SDS011;60419;48.880;18.036;2023-10-19T04:37:25;19.25;;;15.00;;
72427;SDS011;60419;48.880;18.036;2023-10-19T04:40:11;19.75;;;14.25;;
72427;SDS011;60419;48.880;18.036;2023-10-19T04:42:56;20.30;;;14.38;;
72427;SDS011;60419;48.880;18.036;2023-10-19T04:45:43;23.38;;;16.27;;
72427;SDS011;60419;48.880;18.036;2023-10-19T04:48:29;22.60;;;16.98;;
72427;SDS011;60419;48.880;18.036;2023-10-19T04:51:16;23.05;;;16.65;;
72427;SDS011;60419;48.880;18.036;2023-10-19T04:54:02;26.63;;;17.60;;
72427;SDS011;60419;48.880;18.036;2023-10-19T04:56:47;23.52;;;17.05;;
72427;SDS011;60419;48.880;18.036;2023-10-19T04:59:33;23.02;;;16.80;;
72427;SDS011;60419;48.880;18.036;2023-10-19T05:02:18;22.15;;;16.60;;
72427;SDS011;60419;48.880;18.036;2023-10-19T05:05:04;23.50;;;16.88;;
72427;SDS011;60419;48.880;18.036;2023-10-19T05:07:49;23.00;;;16.88;;
72427;SDS011;60419;48.880;18.036;2023-10-19T05:10:35;22.13;;;15.93;;
72427;SDS011;60419;48.880;18.036;2023-10-19T05:13:21;22.25;;;16.08;;
72427;SDS011;60419;48.880;18.036;2023-10-19T05:16:07;24.55;;;16.23;;
72427;SDS011;60419;48.880;18.036;2023-10-19T05:18:52;24.80;;;16.23;;
72427;SDS011;60419;48.880;18.036;2023-10-19T05:21:38;19.50;;;15.10;;
72427;SDS011;60419;48.880;18.036;2023-10-19T05:24:23;21.13;;;14.15;;
72427;SDS011;60419;48.880;18.036;2023-10-19T05:27:08;17.50;;;13.00;;
72427;SDS011;60419;48.880;18.036;2023-10-19T05:29:54;16.75;;;12.85;;
72427;SDS011;60419;48.880;18.036;2023-10-19T05:32:40;27.33;;;14.25;;
72427;SDS011;60419;48.880;18.036;2023-10-19T05:35:25;17.00;;;11.70;;
72427;SDS011;60419;48.880;18.036;2023-10-19T05:38:11;15.13;;;11.43;;
72427;SDS011;60419;48.880;18.036;2023-10-19T05:40:57;17.13;;;11.57;;
72427;SDS011;60419;48.880;18.036;2023-10-19T05:43:44;16.60;;;11.15;;
72427;SDS011;60419;48.880;18.036;2023-10-19T05:46:29;13.98;;;10.60;;
72427;SDS011;60419;48.880;18.036;2023-10-19T05:49:14;13.15;;;9.93;;
72427;SDS011;60419;48.880;18.036;2023-10-19T05:52:02;13.32;;;10.05;;
72427;SDS011;60419;48.880;18.036;2023-10-19T05:54:48;13.30;;;9.40;;
72427;SDS011;60419;48.880;18.036;2023-10-19T05:57:34;13.65;;;9.60;;
72427;SDS011;60419;48.880;18.036;2023-10-19T06:00:21;12.73;;;9.63;;
72427;SDS011;60419;48.880;18.036;2023-10-19T06:03:10;12.60;;;9.13;;
72427;SDS011;60419;48.880;18.036;2023-10-19T06:05:56;12.00;;;8.77;;
72427;SDS011;60419;48.880;18.036;2023-10-19T06:08:41;12.27;;;8.55;;
72427;SDS011;60419;48.880;18.036;2023-10-19T06:11:28;11.77;;;8.25;;
72427;SDS011;60419;48.880;18.036;2023-10-19T06:14:17;11.18;;;8.55;;
72427;SDS011;60419;48.880;18.036;2023-10-19T06:17:02;10.75;;;8.40;;
72427;SDS011;60419;48.880;18.036;2023-10-19T06:19:49;12.20;;;8.75;;
72427;SDS011;60419;48.880;18.036;2023-10-19T06:22:35;11.30;;;8.20;;
72427;SDS011;60419;48.880;18.036;2023-10-19T06:25:20;12.27;;;8.77;;
72427;SDS011;60419;48.880;18.036;2023-10-19T06:28:07;11.20;;;8.50;;
72427;SDS011;60419;48.880;18.036;2023-10-19T06:30:52;14.27;;;8.55;;
72427;SDS011;60419;48.880;18.036;2023-10-19T06:33:38;12.10;;;8.45;;
72427;SDS011;60419;48.880;18.036;2023-10-19T06:36:27;13.85;;;8.77;;
72427;SDS011;60419;48.880;18.036;2023-10-19T06:39:14;11.55;;;8.40;;
72427;SDS011;60419;48.880;18.036;2023-10-19T06:41:59;12.02;;;8.63;;
72427;SDS011;60419;48.880;18.036;2023-10-19T06:44:45;12.32;;;9.07;;
72427;SDS011;60419;48.880;18.036;2023-10-19T06:47:30;11.23;;;8.52;;
72427;SDS011;60419;48.880;18.036;2023-10-19T06:50:16;13.60;;;8.13;;
72427;SDS011;60419;48.880;18.036;2023-10-19T06:53:04;10.65;;;8.20;;
72427;SDS011;60419;48.880;18.036;2023-10-19T06:55:50;11.50;;;8.35;;
72427;SDS011;60419;48.880;18.036;2023-10-19T06:58:35;13.57;;;9.25;;
72427;SDS011;60419;48.880;18.036;2023-10-19T07:01:21;11.68;;;8.35;;
72427;SDS011;60419;48.880;18.036;2023-10-19T07:04:11;10.60;;;7.75;;
72427;SDS011;60419;48.880;18.036;2023-10-19T07:06:56;13.13;;;8.25;;
72427;SDS011;60419;48.880;18.036;2023-10-19T07:09:42;11.65;;;8.32;;
72427;SDS011;60419;48.880;18.036;2023-10-19T07:12:27;11.43;;;9.00;;
72427;SDS011;60419;48.880;18.036;2023-10-19T07:15:13;12.55;;;9.45;;
72427;SDS011;60419;48.880;18.036;2023-10-19T07:17:59;14.20;;;9.88;;
72427;SDS011;60419;48.880;18.036;2023-10-19T07:20:44;14.13;;;9.82;;
72427;SDS011;60419;48.880;18.036;2023-10-19T07:23:33;13.63;;;9.88;;
72427;SDS011;60419;48.880;18.036;2023-10-19T07:26:19;12.48;;;9.32;;
72427;SDS011;60419;48.880;18.036;2023-10-19T07:29:06;14.77;;;10.10;;
72427;SDS011;60419;48.880;18.036;2023-10-19T07:31:55;15.00;;;9.50;;
72427;SDS011;60419;48.880;18.036;2023-10-19T07:34:40;15.95;;;11.18;;
72427;SDS011;60419;48.880;18.036;2023-10-19T07:37:26;16.05;;;11.07;;
72427;SDS011;60419;48.880;18.036;2023-10-19T07:40:12;14.25;;;9.90;;
72427;SDS011;60419;48.880;18.036;2023-10-19T07:42:59;14.13;;;9.35;;
72427;SDS011;60419;48.880;18.036;2023-10-19T07:45:44;17.35;;;9.95;;
72427;SDS011;60419;48.880;18.036;2023-10-19T07:48:30;15.07;;;10.20;;
72427;SDS011;60419;48.880;18.036;2023-10-19T07:51:15;13.93;;;9.63;;
72427;SDS011;60419;48.880;18.036;2023-10-19T07:54:01;14.02;;;10.00;;
72427;SDS011;60419;48.880;18.036;2023-10-19T07:56:46;12.57;;;9.25;;
72427;SDS011;60419;48.880;18.036;2023-10-19T07:59:32;14.50;;;10.50;;
72427;SDS011;60419;48.880;18.036;2023-10-19T08:02:17;13.90;;;10.02;;
72427;SDS011;60419;48.880;18.036;2023-10-19T08:05:04;16.65;;;10.23;;
72427;SDS011;60419;48.880;18.036;2023-10-19T08:07:51;15.05;;;10.05;;
72427;SDS011;60419;48.880;18.036;2023-10-19T08:10:37;13.60;;;9.85;;
72427;SDS011;60419;48.880;18.036;2023-10-19T08:13:22;14.05;;;9.88;;
72427;SDS011;60419;48.880;18.036;2023-10-19T08:16:08;16.38;;;10.80;;
72427;SDS011;60419;48.880;18.036;2023-10-19T08:18:53;12.02;;;9.25;;
72427;SDS011;60419;48.880;18.036;2023-10-19T08:21:39;15.77;;;10.10;;
72427;SDS011;60419;48.880;18.036;2023-10-19T08:24:24;14.50;;;10.27;;
72427;SDS011;60419;48.880;18.036;2023-10-19T08:27:10;15.70;;;10.38;;
72427;SDS011;60419;48.880;18.036;2023-10-19T08:29:56;15.15;;;10.30;;
72427;SDS011;60419;48.880;18.036;2023-10-19T08:32:41;13.15;;;9.98;;
72427;SDS011;60419;48.880;18.036;2023-10-19T08:35:26;13.52;;;10.18;;
72427;SDS011;60419;48.880;18.036;2023-10-19T08:38:12;14.90;;;10.02;;
72427;SDS011;60419;48.880;18.036;2023-10-19T08:40:58;13.68;;;8.98;;
72427;SDS011;60419;48.880;18.036;2023-10-19T08:43:45;13.05;;;9.93;;
72427;SDS011;60419;48.880;18.036;2023-10-19T08:46:30;15.30;;;9.82;;
72427;SDS011;60419;48.880;18.036;2023-10-19T08:49:16;14.85;;;9.60;;
72427;SDS011;60419;48.880;18.036;2023-10-19T08:52:05;14.02;;;10.18;;
72427;SDS011;60419;48.880;18.036;2023-10-19T08:54:53;16.83;;;11.02;;
72427;SDS011;60419;48.880;18.036;2023-10-19T08:57:39;13.23;;;9.80;;
72427;SDS011;60419;48.880;18.036;2023-10-19T09:00:25;13.40;;;9.70;;
72427;SDS011;60419;48.880;18.036;2023-10-19T09:03:11;15.10;;;10.82;;
72427;SDS011;60419;48.880;18.036;2023-10-19T09:06:03;16.65;;;10.88;;
72427;SDS011;60419;48.880;18.036;2023-10-19T09:08:50;12.18;;;8.88;;
72427;SDS011;60419;48.880;18.036;2023-10-19T09:11:36;16.73;;;11.02;;
72427;SDS011;60419;48.880;18.036;2023-10-19T09:14:32;14.52;;;9.93;;
72427;SDS011;60419;48.880;18.036;2023-10-19T09:17:29;15.98;;;9.98;;
72427;SDS011;60419;48.880;18.036;2023-10-19T09:20:15;16.52;;;10.07;;
72427;SDS011;60419;48.880;18.036;2023-10-19T09:23:12;15.98;;;9.73;;
72427;SDS011;60419;48.880;18.036;2023-10-19T09:25:58;13.45;;;10.00;;
72427;SDS011;60419;48.880;18.036;2023-10-19T09:28:49;14.73;;;9.45;;
72427;SDS011;60419;48.880;18.036;2023-10-19T09:31:36;12.10;;;9.48;;
72427;SDS011;60419;48.880;18.036;2023-10-19T09:34:21;12.75;;;9.02;;
72427;SDS011;60419;48.880;18.036;2023-10-19T09:37:16;13.07;;;9.88;;
72427;SDS011;60419;48.880;18.036;2023-10-19T09:40:02;13.35;;;9.57;;
72427;SDS011;60419;48.880;18.036;2023-10-19T09:42:49;13.63;;;9.25;;
72427;SDS011;60419;48.880;18.036;2023-10-19T09:45:38;18.02;;;9.48;;
72427;SDS011;60419;48.880;18.036;2023-10-19T09:48:27;12.23;;;8.73;;
72427;SDS011;60419;48.880;18.036;2023-10-19T09:51:13;12.88;;;8.88;;
72427;SDS011;60419;48.880;18.036;2023-10-19T09:57:10;12.00;;;8.60;;
72427;SDS011;60419;48.880;18.036;2023-10-19T10:00:03;12.02;;;8.57;;
72427;SDS011;60419;48.880;18.036;2023-10-19T10:02:56;10.43;;;8.73;;
72427;SDS011;60419;48.880;18.036;2023-10-19T10:08:29;14.75;;;9.35;;
72427;SDS011;60419;48.880;18.036;2023-10-19T10:11:18;13.20;;;8.98;;
72427;SDS011;60419;48.880;18.036;2023-10-19T10:14:19;12.90;;;9.57;;
72427;SDS011;60419;48.880;18.036;2023-10-19T10:17:17;13.15;;;7.85;;
72427;SDS011;60419;48.880;18.036;2023-10-19T10:23:16;11.00;;;8.20;;
72427;SDS011;60419;48.880;18.036;2023-10-19T10:26:06;14.02;;;8.85;;
72427;SDS011;60419;48.880;18.036;2023-10-19T10:29:10;11.80;;;8.10;;
72427;SDS011;60419;48.880;18.036;2023-10-19T10:32:04;12.50;;;7.95;;
72427;SDS011;60419;48.880;18.036;2023-10-19T10:34:52;11.15;;;7.90;;
72427;SDS011;60419;48.880;18.036;2023-10-19T10:37:38;12.85;;;8.10;;
72427;SDS011;60419;48.880;18.036;2023-10-19T10:40:25;10.50;;;8.32;;
72427;SDS011;60419;48.880;18.036;2023-10-19T10:43:11;10.07;;;7.60;;
72427;SDS011;60419;48.880;18.036;2023-10-19T10:46:04;12.18;;;8.25;;
72427;SDS011;60419;48.880;18.036;2023-10-19T10:48:55;12.57;;;8.68;;
72427;SDS011;60419;48.880;18.036;2023-10-19T10:51:40;12.50;;;9.85;;
72427;SDS011;60419;48.880;18.036;2023-10-19T10:54:26;11.73;;;8.13;;
72427;SDS011;60419;48.880;18.036;2023-10-19T10:57:12;11.27;;;8.13;;
72427;SDS011;60419;48.880;18.036;2023-10-19T11:00:11;11.95;;;8.88;;
72427;SDS011;60419;48.880;18.036;2023-10-19T11:03:02;11.70;;;8.68;;
72427;SDS011;60419;48.880;18.036;2023-10-19T11:05:49;12.57;;;9.60;;
72427;SDS011;60419;48.880;18.036;2023-10-19T11:08:35;11.73;;;8.85;;
72427;SDS011;60419;48.880;18.036;2023-10-19T11:11:22;12.57;;;8.65;;
72427;SDS011;60419;48.880;18.036;2023-10-19T11:14:10;11.98;;;8.65;;
72427;SDS011;60419;48.880;18.036;2023-10-19T11:17:10;12.07;;;8.70;;
72427;SDS011;60419;48.880;18.036;2023-10-19T11:19:58;11.45;;;8.60;;
72427;SDS011;60419;48.880;18.036;2023-10-19T11:22:53;11.95;;;8.95;;
72427;SDS011;60419;48.880;18.036;2023-10-19T11:25:41;14.00;;;9.02;;
72427;SDS011;60419;48.880;18.036;2023-10-19T11:28:26;12.10;;;9.05;;
72427;SDS011;60419;48.880;18.036;2023-10-19T11:34:09;13.00;;;9.75;;
72427;SDS011;60419;48.880;18.036;2023-10-19T11:36:57;12.73;;;10.05;;
72427;SDS011;60419;48.880;18.036;2023-10-19T11:39:44;14.40;;;10.95;;
72427;SDS011;60419;48.880;18.036;2023-10-19T11:42:30;15.40;;;10.98;;
72427;SDS011;60419;48.880;18.036;2023-10-19T11:45:16;14.77;;;11.43;;
72427;SDS011;60419;48.880;18.036;2023-10-19T11:48:03;15.10;;;10.95;;
72427;SDS011;60419;48.880;18.036;2023-10-19T11:50:49;14.52;;;10.95;;
72427;SDS011;60419;48.880;18.036;2023-10-19T11:53:35;15.90;;;11.27;;
72427;SDS011;60419;48.880;18.036;2023-10-19T11:56:22;12.18;;;9.52;;
72427;SDS011;60419;48.880;18.036;2023-10-19T11:59:10;13.95;;;10.50;;
72427;SDS011;60419;48.880;18.036;2023-10-19T12:01:57;13.38;;;10.15;;
72427;SDS011;60419;48.880;18.036;2023-10-19T12:04:43;18.00;;;11.23;;
72427;SDS011;60419;48.880;18.036;2023-10-19T12:07:30;14.73;;;11.45;;
72427;SDS011;60419;48.880;18.036;2023-10-19T12:10:18;17.10;;;11.40;;
72427;SDS011;60419;48.880;18.036;2023-10-19T12:13:07;16.80;;;11.45;;
72427;SDS011;60419;48.880;18.036;2023-10-19T12:15:54;16.38;;;12.20;;
72427;SDS011;60419;48.880;18.036;2023-10-19T12:18:40;20.30;;;12.98;;
72427;SDS011;60419;48.880;18.036;2023-10-19T12:21:27;15.00;;;12.05;;
72427;SDS011;60419;48.880;18.036;2023-10-19T12:24:13;17.45;;;13.32;;
72427;SDS011;60419;48.880;18.036;2023-10-19T12:27:00;18.13;;;12.98;;
72427;SDS011;60419;48.880;18.036;2023-10-19T12:29:45;17.35;;;12.23;;
72427;SDS011;60419;48.880;18.036;2023-10-19T12:32:30;18.17;;;13.02;;
72427;SDS011;60419;48.880;18.036;2023-10-19T12:35:16;18.67;;;14.63;;
72427;SDS011;60419;48.880;18.036;2023-10-19T12:38:04;18.48;;;14.32;;
72427;SDS011;60419;48.880;18.036;2023-10-19T12:40:51;21.58;;;14.20;;
72427;SDS011;60419;48.880;18.036;2023-10-19T12:43:37;16.85;;;13.15;;
72427;SDS011;60419;48.880;18.036;2023-10-19T12:46:22;19.05;;;14.00;;
72427;SDS011;60419;48.880;18.036;2023-10-19T12:49:09;18.05;;;13.68;;
72427;SDS011;60419;48.880;18.036;2023-10-19T12:52:01;16.95;;;13.40;;
72427;SDS011;60419;48.880;18.036;2023-10-19T12:54:48;16.17;;;12.68;;
72427;SDS011;60419;48.880;18.036;2023-10-19T12:57:36;17.60;;;12.13;;
72427;SDS011;60419;48.880;18.036;2023-10-19T13:00:21;16.83;;;12.07;;
72427;SDS011;60419;48.880;18.036;2023-10-19T13:03:21;15.00;;;11.55;;
72427;SDS011;60419;48.880;18.036;2023-10-19T13:06:07;15.52;;;11.02;;
72427;SDS011;60419;48.880;18.036;2023-10-19T13:08:52;16.42;;;11.77;;
72427;SDS011;60419;48.880;18.036;2023-10-19T13:11:37;15.85;;;11.73;;
72427;SDS011;60419;48.880;18.036;2023-10-19T13:14:24;15.50;;;10.82;;
72427;SDS011;60419;48.880;18.036;2023-10-19T13:17:10;17.42;;;11.32;;
72427;SDS011;60419;48.880;18.036;2023-10-19T13:19:56;15.68;;;11.80;;
72427;SDS011;60419;48.880;18.036;2023-10-19T13:22:46;15.32;;;12.13;;
72427;SDS011;60419;48.880;18.036;2023-10-19T13:25:32;18.13;;;12.25;;
72427;SDS011;60419;48.880;18.036;2023-10-19T13:28:26;16.05;;;11.93;;
72427;SDS011;60419;48.880;18.036;2023-10-19T13:31:12;14.85;;;11.75;;
72427;SDS011;60419;48.880;18.036;2023-10-19T13:34:01;15.35;;;11.48;;
72427;SDS011;60419;48.880;18.036;2023-10-19T13:36:48;17.55;;;11.82;;
72427;SDS011;60419;48.880;18.036;2023-10-19T13:39:34;16.75;;;11.48;;
72427;SDS011;60419;48.880;18.036;2023-10-19T13:42:20;16.65;;;10.77;;
72427;SDS011;60419;48.880;18.036;2023-10-19T13:45:06;14.82;;;11.18;;
72427;SDS011;60419;48.880;18.036;2023-10-19T13:47:52;15.82;;;11.95;;
72427;SDS011;60419;48.880;18.036;2023-10-19T13:50:41;15.07;;;11.02;;
72427;SDS011;60419;48.880;18.036;2023-10-19T13:53:33;17.00;;;11.20;;
72427;SDS011;60419;48.880;18.036;2023-10-19T13:56:18;16.45;;;11.52;;
72427;SDS011;60419;48.880;18.036;2023-10-19T13:59:04;15.80;;;11.52;;
72427;SDS011;60419;48.880;18.036;2023-10-19T14:01:50;17.05;;;11.95;;
72427;SDS011;60419;48.880;18.036;2023-10-19T14:04:35;13.60;;;10.57;;
72427;SDS011;60419;48.880;18.036;2023-10-19T14:07:21;17.13;;;11.38;;
72427;SDS011;60419;48.880;18.036;2023-10-19T14:10:07;15.32;;;11.25;;
72427;SDS011;60419;48.880;18.036;2023-10-19T14:12:57;15.75;;;11.38;;
72427;SDS011;60419;48.880;18.036;2023-10-19T14:15:42;15.48;;;11.13;;
72427;SDS011;60419;48.880;18.036;2023-10-19T14:18:28;17.00;;;11.43;;
72427;SDS011;60419;48.880;18.036;2023-10-19T14:21:14;14.73;;;11.63;;
72427;SDS011;60419;48.880;18.036;2023-10-19T14:24:00;15.90;;;11.05;;
72427;SDS011;60419;48.880;18.036;2023-10-19T14:26:46;9.85;;;7.03;;
72427;SDS011;60419;48.880;18.036;2023-10-19T14:29:32;14.93;;;10.45;;
72427;SDS011;60419;48.880;18.036;2023-10-19T14:32:17;13.68;;;9.95;;
72427;SDS011;60419;48.880;18.036;2023-10-19T14:35:02;14.73;;;11.05;;
72427;SDS011;60419;48.880;18.036;2023-10-19T14:37:51;17.58;;;11.82;;
72427;SDS011;60419;48.880;18.036;2023-10-19T14:40:41;16.00;;;10.90;;
72427;SDS011;60419;48.880;18.036;2023-10-19T14:43:29;16.05;;;11.73;;
72427;SDS011;60419;48.880;18.036;2023-10-19T14:46:15;15.90;;;11.25;;
72427;SDS011;60419;48.880;18.036;2023-10-19T14:49:01;17.65;;;12.05;;
72427;SDS011;60419;48.880;18.036;2023-10-19T14:51:46;15.55;;;11.50;;
72427;SDS011;60419;48.880;18.036;2023-10-19T14:54:32;16.48;;;12.15;;
72427;SDS011;60419;48.880;18.036;2023-10-19T14:57:17;19.17;;;11.55;;
72427;SDS011;60419;48.880;18.036;2023-10-19T15:00:06;19.00;;;13.82;;
72427;SDS011;60419;48.880;18.036;2023-10-19T15:03:06;16.50;;;11.77;;
72427;SDS011;60419;48.880;18.036;2023-10-19T15:05:52;15.80;;;11.95;;
72427;SDS011;60419;48.880;18.036;2023-10-19T15:08:40;18.67;;;12.15;;
72427;SDS011;60419;48.880;18.036;2023-10-19T15:11:26;16.13;;;12.35;;
72427;SDS011;60419;48.880;18.036;2023-10-19T15:14:11;16.35;;;11.82;;
72427;SDS011;60419;48.880;18.036;2023-10-19T15:16:57;16.27;;;12.30;;
72427;SDS011;60419;48.880;18.036;2023-10-19T15:19:42;20.48;;;12.13;;
72427;SDS011;60419;48.880;18.036;2023-10-19T15:22:28;16.55;;;11.93;;
72427;SDS011;60419;48.880;18.036;2023-10-19T15:25:13;14.55;;;9.20;;
72427;SDS011;60419;48.880;18.036;2023-10-19T15:27:59;18.27;;;13.02;;
72427;SDS011;60419;48.880;18.036;2023-10-19T15:30:45;15.45;;;11.45;;
72427;SDS011;60419;48.880;18.036;2023-10-19T15:33:30;15.63;;;12.07;;
72427;SDS011;60419;48.880;18.036;2023-10-19T15:36:17;19.60;;;12.10;;
72427;SDS011;60419;48.880;18.036;2023-10-19T15:39:02;18.33;;;12.65;;
72427;SDS011;60419;48.880;18.036;2023-10-19T15:41:48;15.88;;;12.18;;
72427;SDS011;60419;48.880;18.036;2023-10-19T15:44:33;18.65;;;12.48;;
72427;SDS011;60419;48.880;18.036;2023-10-19T15:47:20;16.65;;;12.05;;
72427;SDS011;60419;48.880;18.036;2023-10-19T15:50:07;19.90;;;12.52;;
72427;SDS011;60419;48.880;18.036;2023-10-19T15:52:54;19.02;;;12.98;;
72427;SDS011;60419;48.880;18.036;2023-10-19T15:55:40;16.52;;;11.98;;
72427;SDS011;60419;48.880;18.036;2023-10-19T15:58:25;15.93;;;11.95;;
72427;SDS011;60419;48.880;18.036;2023-10-19T16:01:11;18.92;;;12.68;;
72427;SDS011;60419;48.880;18.036;2023-10-19T16:03:56;16.75;;;12.05;;
72427;SDS011;60419;48.880;18.036;2023-10-19T16:06:42;16.30;;;12.27;;
72427;SDS011;60419;48.880;18.036;2023-10-19T16:09:27;20.33;;;12.55;;
72427;SDS011;60419;48.880;18.036;2023-10-19T16:12:12;18.10;;;13.30;;
72427;SDS011;60419;48.880;18.036;2023-10-19T16:14:58;18.52;;;13.18;;
72427;SDS011;60419;48.880;18.036;2023-10-19T16:17:44;12.68;;;9.90;;
72427;SDS011;60419;48.880;18.036;2023-10-19T16:20:30;12.38;;;9.07;;
72427;SDS011;60419;48.880;18.036;2023-10-19T16:23:16;16.38;;;12.35;;
72427;SDS011;60419;48.880;18.036;2023-10-19T16:26:01;19.25;;;12.70;;